Penrod, Kentucky
Current Conditions -  °F | °C
As of 11:55 PM on Tuesday 21 Oct 2014 (Local Time) from K2I0 Reporting Station
Clear Clear  
Wind Chill: 47°   Ceiling: Unl
Heat Index: 47°   Visibility: 10mi
Dew Point: 42°   Wind: 3mph
Humidity: 85%   Direction: 20°NNE
Pressure: 30.18"   Gusts: NA
Location:  37.11°N, 87°W
Report Text: K2I0 220455Z AUTO 02003KT 10SM CLR 08/06 A3018 RMK AO2 T00810058
Loading
Personal Weather Stations






























Interactive Weather Map
Tropical Storm Tracking
New forecast layout! Learn more

10-Day Weather Forecast

Advertisements
Track Severe Weather on mobile